Hartford Brainard Airport
KHFD : now visible

Aeroporto :











RITROVATECI SU...

 
LOGIN :

Iscrizione | Disclaimer

   EN    FR    IT 

 









Sommario :    VFR   VFR Marginale   IFR   IFR Intensivo   IFR Molto Intensivo
Visibilità : 
Base nubi : 
>= 8 km
>= 3000ft
5 / 8 km
1000 / 3000 ft
1500m / 5 km
500 / 1000 ft
800 / 1500m
200 / 500 ft
< 800m
< 200 ft
Simboli :   Temporali  Nebbia  Neve Forte  Precipitazioni Forti  Vento > 20 kt







- Altitudine del aeroporto : 18 ft


KHFD - Hartford Brainard

ULTIMO METAR :
  • 222223Z 34007KT 2 1/2SM RA BR BKN022 BKN030 OVC049 13/12 A3000 RMK AO2 P0011 T01330117

METARs OBSOLETI :
  • 222153Z 34007KT 2SM RA BR BKN025 BKN036 OVC048 14/12 A3001 RMK AO2 SLP161 P0009 T01390117
  • 222145Z 34006KT 4SM RA BKN027 OVC050 14/11 A3001 RMK AO2 P0005 T01390111
  • 222053Z 03010KT 10SM -RA OVC060 16/10 A2998 RMK AO2 RAB47 SLP151 P0000 60001 T01560100 53004
  • 221953Z 04008KT 10SM BKN060 OVC075 18/12 A2995 RMK AO2 RAB1857E19 SLP143 P0001 T01780117

TAF N/A
FIR KZBW / America del Nord



MetMap, La meteo Aeronautica in un colpo d'occhio ! - Copyright ORBIFLY Dicembre 2007 - Disclaimer

ORBIFLY MET'MAP TEAM :

Programmazione e sviluppo : Alexandra Zaïnal
Concezione e sviluppo : Baudouin d'Aumeries
Co-Programmazione e sviluppo : Marc-Olivier Méhu
Supporto tecnico e logistico : Manuel Goepfert
Aiuto per la traduzione : Arnaldo La Scala

Contatto : metmap@orbifly.com




FONTI E CREDITI :

   NOAA       Earth
Advisory